createdAt,value
2023-09-06T00:01:07.356Z,17.87
2023-09-06T00:03:34.190Z,17.93
2023-09-06T00:06:01.189Z,18.01
2023-09-06T00:08:28.176Z,17.93
2023-09-06T00:10:55.093Z,17.91
2023-09-06T00:13:21.628Z,17.93
2023-09-06T00:15:49.662Z,17.99
2023-09-06T00:18:16.225Z,17.97
2023-09-06T00:20:42.784Z,18.04
2023-09-06T00:23:10.614Z,17.90
2023-09-06T00:25:39.083Z,17.90
2023-09-06T00:28:06.857Z,17.89
2023-09-06T00:30:34.174Z,17.91
2023-09-06T00:33:01.303Z,17.87
2023-09-06T00:35:28.010Z,17.92
2023-09-06T00:37:55.716Z,17.91
2023-09-06T00:40:23.347Z,17.72
2023-09-06T00:42:53.872Z,17.93
2023-09-06T00:45:23.968Z,17.88
2023-09-06T00:47:51.819Z,17.88
2023-09-06T00:50:19.412Z,17.85
2023-09-06T00:52:46.961Z,17.85
2023-09-06T00:55:13.963Z,17.93
2023-09-06T00:57:41.888Z,17.83
2023-09-06T01:00:24.197Z,17.86
2023-09-06T01:02:50.741Z,17.82
2023-09-06T01:05:19.933Z,17.82
2023-09-06T01:07:56.293Z,17.77
2023-09-06T01:10:22.741Z,17.92
2023-09-06T01:12:50.118Z,17.89
2023-09-06T01:15:16.715Z,17.88
2023-09-06T01:17:44.516Z,17.80
2023-09-06T01:20:30.505Z,17.80
2023-09-06T01:23:16.432Z,17.77
2023-09-06T01:25:43.070Z,17.72
2023-09-06T01:28:09.570Z,17.65
2023-09-06T01:30:37.859Z,17.67
2023-09-06T01:33:04.531Z,17.65
2023-09-06T01:35:31.015Z,17.69
2023-09-06T01:37:57.927Z,17.61
2023-09-06T01:40:27.450Z,17.54
2023-09-06T01:42:55.068Z,17.47
2023-09-06T01:45:21.867Z,17.56
2023-09-06T01:47:49.272Z,17.59
2023-09-06T01:50:20.490Z,17.62
2023-09-06T01:52:48.207Z,17.66
2023-09-06T01:55:14.790Z,17.46
2023-09-06T01:57:41.307Z,17.48
2023-09-06T02:00:33.651Z,17.71
2023-09-06T02:03:01.332Z,17.76
2023-09-06T02:05:27.886Z,17.78
2023-09-06T02:07:54.469Z,17.76
2023-09-06T02:10:21.033Z,17.67
2023-09-06T02:12:47.555Z,17.65
2023-09-06T02:15:15.887Z,17.57
2023-09-06T02:17:43.651Z,17.61
2023-09-06T02:20:21.113Z,17.63
2023-09-06T02:22:53.205Z,17.57
2023-09-06T02:25:23.047Z,17.61
2023-09-06T02:27:50.557Z,17.51
2023-09-06T02:30:18.292Z,17.51
2023-09-06T02:32:44.854Z,17.41
2023-09-06T02:35:11.345Z,17.40
2023-09-06T02:37:38.037Z,17.45
2023-09-06T02:40:12.674Z,17.49
2023-09-06T02:42:39.446Z,17.34
2023-09-06T02:45:08.780Z,17.35
2023-09-06T02:47:36.451Z,17.36
2023-09-06T02:50:06.542Z,17.32
2023-09-06T02:52:36.880Z,17.41
2023-09-06T02:55:11.790Z,17.35
2023-09-06T02:57:38.655Z,17.41
2023-09-06T03:00:25.344Z,17.31
2023-09-06T03:03:08.012Z,17.22
2023-09-06T03:05:36.215Z,17.30
2023-09-06T03:08:02.644Z,17.40
2023-09-06T03:10:29.167Z,17.24
2023-09-06T03:12:57.513Z,17.23
2023-09-06T03:15:28.430Z,17.28
2023-09-06T03:17:55.637Z,17.23
2023-09-06T03:20:35.132Z,17.23
2023-09-06T03:23:02.353Z,17.19
2023-09-06T03:25:29.696Z,17.18
2023-09-06T03:28:02.685Z,17.20
2023-09-06T03:30:31.314Z,17.24
2023-09-06T03:32:59.525Z,17.24
2023-09-06T03:35:26.866Z,17.23
2023-09-06T03:37:53.377Z,17.26
2023-09-06T03:40:26.501Z,17.19
2023-09-06T03:42:56.268Z,17.31
2023-09-06T03:45:23.025Z,17.24
2023-09-06T03:47:50.042Z,17.21
2023-09-06T03:50:16.931Z,17.17
2023-09-06T03:52:44.356Z,17.12
2023-09-06T03:55:11.762Z,16.89
2023-09-06T03:57:38.608Z,16.87
2023-09-06T04:00:24.328Z,16.80
2023-09-06T04:02:51.493Z,16.77
2023-09-06T04:05:18.074Z,16.70
2023-09-06T04:07:47.011Z,16.79
2023-09-06T04:10:17.567Z,16.85
2023-09-06T04:12:47.159Z,16.98
2023-09-06T04:15:16.660Z,16.91
2023-09-06T04:17:43.187Z,16.81
2023-09-06T04:20:24.560Z,16.87
2023-09-06T04:22:52.455Z,16.83
2023-09-06T04:25:19.975Z,16.90
2023-09-06T04:27:47.188Z,16.77
2023-09-06T04:30:17.089Z,16.88
2023-09-06T04:32:47.364Z,16.83
2023-09-06T04:35:17.224Z,16.79
2023-09-06T04:37:44.716Z,16.55
2023-09-06T04:40:12.906Z,16.52
2023-09-06T04:42:40.870Z,16.69
2023-09-06T04:45:11.674Z,16.55
2023-09-06T04:47:45.013Z,16.55
2023-09-06T04:50:14.570Z,16.75
2023-09-06T04:52:48.193Z,16.89
2023-09-06T04:55:15.922Z,16.93
2023-09-06T04:57:42.884Z,16.93
2023-09-06T05:00:24.920Z,16.91
2023-09-06T05:02:56.133Z,16.99
2023-09-06T05:05:22.968Z,17.01
2023-09-06T05:07:49.544Z,17.00
2023-09-06T05:10:16.031Z,17.07
2023-09-06T05:12:42.574Z,17.19
2023-09-06T05:15:09.751Z,17.25
2023-09-06T05:17:36.657Z,17.09
2023-09-06T05:20:34.285Z,17.04
2023-09-06T05:23:03.988Z,17.12
2023-09-06T05:25:31.419Z,17.19
2023-09-06T05:27:59.581Z,17.35
2023-09-06T05:30:27.178Z,17.48
2023-09-06T05:32:57.509Z,17.54
2023-09-06T05:35:24.551Z,17.66
2023-09-06T05:37:51.578Z,17.71
2023-09-06T05:40:23.654Z,17.64
2023-09-06T05:42:54.343Z,17.81
2023-09-06T05:45:22.286Z,17.98
2023-09-06T05:47:49.449Z,18.08
2023-09-06T05:50:17.994Z,18.14
2023-09-06T05:52:44.638Z,18.01
2023-09-06T05:55:11.399Z,18.17
2023-09-06T05:57:39.390Z,18.36
2023-09-06T06:00:16.870Z,18.37
2023-09-06T06:02:45.635Z,18.42
2023-09-06T06:05:13.250Z,18.56
2023-09-06T06:07:40.584Z,18.67
2023-09-06T06:10:10.893Z,18.95
2023-09-06T06:12:40.954Z,19.03
2023-09-06T06:15:13.245Z,19.00
2023-09-06T06:17:39.969Z,19.20
2023-09-06T06:20:12.093Z,19.37
2023-09-06T06:22:39.730Z,19.60
2023-09-06T06:25:11.461Z,19.73
2023-09-06T06:27:39.185Z,20.21
2023-09-06T06:30:07.428Z,20.90
2023-09-06T06:32:34.512Z,21.65
2023-09-06T06:35:06.180Z,22.60
2023-09-06T06:37:33.184Z,23.29
2023-09-06T06:40:02.516Z,23.25
2023-09-06T06:42:28.990Z,23.48
2023-09-06T06:44:55.657Z,23.31
2023-09-06T06:47:22.932Z,23.37
2023-09-06T06:49:52.861Z,23.35
2023-09-06T06:52:19.265Z,24.28
2023-09-06T06:54:47.188Z,24.23
2023-09-06T06:57:13.886Z,24.98
2023-09-06T06:59:40.702Z,24.42
2023-09-06T07:02:07.545Z,24.60
2023-09-06T07:04:34.020Z,25.25
2023-09-06T07:07:00.465Z,25.73
2023-09-06T07:09:26.946Z,26.41
2023-09-06T07:11:53.402Z,27.01
2023-09-06T07:14:19.888Z,27.09
2023-09-06T07:16:46.544Z,26.78
2023-09-06T07:19:13.741Z,27.21
2023-09-06T07:21:40.159Z,27.82
2023-09-06T07:24:07.224Z,27.18
2023-09-06T07:26:33.681Z,27.91
2023-09-06T07:29:00.186Z,27.72
2023-09-06T07:31:26.752Z,27.30
2023-09-06T07:33:53.376Z,27.90
2023-09-06T07:36:20.254Z,27.73
2023-09-06T07:38:47.036Z,27.75
2023-09-06T07:41:13.775Z,27.59
2023-09-06T07:43:40.642Z,28.09
2023-09-06T07:46:10.788Z,28.44
2023-09-06T07:48:37.780Z,28.74
2023-09-06T07:51:05.414Z,29.24
2023-09-06T07:53:32.895Z,29.52
2023-09-06T07:55:59.501Z,30.40
2023-09-06T07:58:26.793Z,30.26
2023-09-06T08:01:06.264Z,30.38
2023-09-06T08:03:37.645Z,30.76
2023-09-06T08:06:05.433Z,30.71
2023-09-06T08:08:32.479Z,30.80
2023-09-06T08:10:59.469Z,30.59
2023-09-06T08:13:25.900Z,31.08
2023-09-06T08:15:53.735Z,31.33
2023-09-06T08:18:20.282Z,31.31
2023-09-06T08:20:46.842Z,32.02
2023-09-06T08:23:13.323Z,31.84
2023-09-06T08:25:39.777Z,32.02
2023-09-06T08:28:07.046Z,31.82
2023-09-06T08:30:33.616Z,31.25
2023-09-06T08:33:00.209Z,31.24
2023-09-06T08:35:28.764Z,30.93
2023-09-06T08:37:55.180Z,30.06
2023-09-06T08:40:22.784Z,30.09
2023-09-06T08:42:50.556Z,30.88
2023-09-06T08:45:22.805Z,31.79
2023-09-06T08:47:50.118Z,31.40
2023-09-06T08:50:17.438Z,32.50
2023-09-06T08:52:45.664Z,31.89
2023-09-06T08:55:12.664Z,32.56
2023-09-06T08:57:40.739Z,31.47
2023-09-06T09:00:11.270Z,31.79
2023-09-06T09:02:41.508Z,31.55
2023-09-06T09:05:20.611Z,30.93
2023-09-06T09:07:59.919Z,30.91
2023-09-06T09:10:29.970Z,32.10
2023-09-06T09:12:58.099Z,31.75
2023-09-06T09:15:27.978Z,32.20
2023-09-06T09:18:00.820Z,33.03
2023-09-06T09:20:28.913Z,33.58
2023-09-06T09:23:02.711Z,34.12
2023-09-06T09:25:30.281Z,34.51
2023-09-06T09:27:58.571Z,34.88
2023-09-06T09:30:27.763Z,34.96
2023-09-06T09:32:59.190Z,34.82
2023-09-06T09:35:27.428Z,34.61
2023-09-06T09:37:54.878Z,33.71
2023-09-06T09:40:25.898Z,33.61
2023-09-06T09:42:57.709Z,35.13
2023-09-06T09:45:31.609Z,35.26
2023-09-06T09:47:58.747Z,35.02
2023-09-06T09:50:27.053Z,35.19
2023-09-06T09:52:54.948Z,35.77
2023-09-06T09:55:36.168Z,34.76
2023-09-06T09:58:07.974Z,35.38
2023-09-06T10:00:34.842Z,35.84
2023-09-06T10:03:04.249Z,35.84
2023-09-06T10:05:32.981Z,36.06
2023-09-06T10:08:03.562Z,36.28
2023-09-06T10:10:30.531Z,37.06
2023-09-06T10:12:57.405Z,37.63
2023-09-06T10:15:24.901Z,36.06
2023-09-06T10:17:55.326Z,35.93
2023-09-06T10:20:24.572Z,36.14
2023-09-06T10:22:55.250Z,36.33
2023-09-06T10:25:21.828Z,36.45
2023-09-06T10:27:58.417Z,37.09
2023-09-06T10:30:35.647Z,37.20
2023-09-06T10:33:03.764Z,38.37
2023-09-06T10:35:34.039Z,37.77
2023-09-06T10:38:06.744Z,37.80
2023-09-06T10:41:05.748Z,38.67
2023-09-06T10:43:54.223Z,38.47
2023-09-06T10:46:20.648Z,39.41
2023-09-06T10:49:09.103Z,39.53
2023-09-06T10:51:55.088Z,40.32
2023-09-06T10:54:24.404Z,40.79
2023-09-06T10:56:56.981Z,40.33
2023-09-06T10:59:23.588Z,40.75
2023-09-06T11:02:22.409Z,41.07
2023-09-06T11:04:49.613Z,40.60
2023-09-06T11:07:16.527Z,39.68
2023-09-06T11:09:51.178Z,40.43
2023-09-06T11:12:18.489Z,39.51
2023-09-06T11:14:50.616Z,39.59
2023-09-06T11:17:22.330Z,39.82
2023-09-06T11:19:48.966Z,39.30
2023-09-06T11:22:15.502Z,40.26
2023-09-06T11:24:42.050Z,40.33
2023-09-06T11:27:22.521Z,40.01
2023-09-06T11:30:11.308Z,39.75
2023-09-06T11:32:38.415Z,40.44
2023-09-06T11:35:09.350Z,40.51
2023-09-06T11:37:40.185Z,41.08
2023-09-06T11:40:16.877Z,40.92
2023-09-06T11:42:46.997Z,40.41
2023-09-06T11:45:18.006Z,41.41
2023-09-06T11:47:48.579Z,40.83
2023-09-06T11:50:20.185Z,41.31
2023-09-06T11:52:58.179Z,41.95
2023-09-06T11:55:27.383Z,41.67
2023-09-06T11:57:54.189Z,41.38
2023-09-06T12:00:28.810Z,41.76
2023-09-06T12:03:09.463Z,40.01
2023-09-06T12:05:49.024Z,40.37
2023-09-06T12:08:22.924Z,40.82
2023-09-06T12:10:54.810Z,39.84
2023-09-06T12:13:29.046Z,40.18
2023-09-06T12:15:57.611Z,40.39
2023-09-06T12:18:29.315Z,42.23
2023-09-06T12:20:57.915Z,42.01
2023-09-06T12:23:30.198Z,40.82
2023-09-06T12:25:58.393Z,41.14
2023-09-06T12:28:25.254Z,42.45
2023-09-06T12:30:59.896Z,41.62
2023-09-06T12:33:28.727Z,42.76
2023-09-06T12:36:06.347Z,42.36
2023-09-06T12:38:33.236Z,42.37
2023-09-06T12:41:01.006Z,43.08
2023-09-06T12:43:27.840Z,43.54
2023-09-06T12:45:55.150Z,43.33
2023-09-06T12:48:22.997Z,42.88
2023-09-06T12:50:50.912Z,42.28
2023-09-06T12:53:17.500Z,40.68
2023-09-06T12:55:44.853Z,42.22
2023-09-06T12:58:11.482Z,43.28
2023-09-06T13:00:37.968Z,43.44
2023-09-06T13:03:04.564Z,43.32
2023-09-06T13:05:32.676Z,43.43
2023-09-06T13:08:02.396Z,43.22
2023-09-06T13:10:30.167Z,43.84
2023-09-06T13:12:56.672Z,42.57
2023-09-06T13:15:23.662Z,42.10
2023-09-06T13:17:50.335Z,42.96
2023-09-06T13:20:17.087Z,42.71
2023-09-06T13:22:44.238Z,43.63
2023-09-06T13:25:12.482Z,42.69
2023-09-06T13:27:39.768Z,42.72
2023-09-06T13:30:06.987Z,41.00
2023-09-06T13:32:33.624Z,41.41
2023-09-06T13:35:00.350Z,42.78
2023-09-06T13:37:28.058Z,41.79
2023-09-06T13:39:55.773Z,42.59
2023-09-06T13:42:22.441Z,42.24
2023-09-06T13:44:48.975Z,42.37
2023-09-06T13:47:17.466Z,42.28
2023-09-06T13:49:44.385Z,42.02
2023-09-06T13:52:13.449Z,40.65
2023-09-06T13:54:41.388Z,41.33
2023-09-06T13:57:08.430Z,42.66
2023-09-06T13:59:35.113Z,42.48
2023-09-06T14:02:01.837Z,41.32
2023-09-06T14:04:28.474Z,41.70
2023-09-06T14:06:55.620Z,41.19
2023-09-06T14:09:23.802Z,42.44
2023-09-06T14:11:51.004Z,40.93
2023-09-06T14:14:18.522Z,40.82
2023-09-06T14:16:46.076Z,41.01
2023-09-06T14:19:12.837Z,39.85
2023-09-06T14:21:46.156Z,41.44
2023-09-06T14:24:15.262Z,41.13
2023-09-06T14:26:44.131Z,40.98
2023-09-06T14:29:13.043Z,41.18
2023-09-06T14:31:40.257Z,41.30
2023-09-06T14:34:06.985Z,41.39
2023-09-06T14:36:33.493Z,40.01
2023-09-06T14:39:00.822Z,39.90
2023-09-06T14:41:27.381Z,39.50
2023-09-06T14:43:55.986Z,38.66
2023-09-06T14:46:22.640Z,38.30
2023-09-06T14:48:49.224Z,36.81
2023-09-06T14:51:15.945Z,36.91
2023-09-06T14:53:42.473Z,36.14
2023-09-06T14:56:09.189Z,35.62
2023-09-06T14:58:35.721Z,35.12
2023-09-06T15:01:02.288Z,34.55
2023-09-06T15:03:29.292Z,34.52
2023-09-06T15:05:55.989Z,34.28
2023-09-06T15:08:23.186Z,34.28
2023-09-06T15:10:49.708Z,33.55
2023-09-06T15:13:16.390Z,33.36
2023-09-06T15:15:44.285Z,33.47
2023-09-06T15:18:10.904Z,33.60
2023-09-06T15:20:37.843Z,33.47
2023-09-06T15:23:04.640Z,33.40
2023-09-06T15:25:31.195Z,33.65
2023-09-06T15:27:57.668Z,33.05
2023-09-06T15:30:24.341Z,33.35
2023-09-06T15:32:50.884Z,33.00
2023-09-06T15:35:18.046Z,33.32
2023-09-06T15:38:04.408Z,33.00
2023-09-06T15:40:32.966Z,32.68
2023-09-06T15:42:59.698Z,32.11
2023-09-06T15:45:26.655Z,32.68
2023-09-06T15:47:54.362Z,32.27
2023-09-06T15:50:21.320Z,32.38
2023-09-06T15:52:48.525Z,32.01
2023-09-06T15:55:16.143Z,31.68
2023-09-06T15:57:43.530Z,31.88
2023-09-06T16:00:24.338Z,31.71
2023-09-06T16:02:58.673Z,31.27
2023-09-06T16:05:25.452Z,30.93
2023-09-06T16:07:52.029Z,31.33
2023-09-06T16:10:18.629Z,31.43
2023-09-06T16:12:48.999Z,31.37
2023-09-06T16:15:16.879Z,31.54
2023-09-06T16:17:43.818Z,31.38
2023-09-06T16:20:12.252Z,31.16
2023-09-06T16:22:39.209Z,31.14
2023-09-06T16:25:08.546Z,30.89
2023-09-06T16:27:35.078Z,30.76
2023-09-06T16:30:02.427Z,30.49
2023-09-06T16:32:29.126Z,30.06
2023-09-06T16:34:55.705Z,29.92
2023-09-06T16:37:22.314Z,30.25
2023-09-06T16:39:49.002Z,30.10
2023-09-06T16:42:17.265Z,29.97
2023-09-06T16:44:43.862Z,29.84
2023-09-06T16:47:13.563Z,29.59
2023-09-06T16:49:43.474Z,29.46
2023-09-06T16:52:10.233Z,28.99
2023-09-06T16:54:36.742Z,28.67
2023-09-06T16:57:05.083Z,29.00
2023-09-06T16:59:32.116Z,28.80
2023-09-06T17:01:59.200Z,28.78
2023-09-06T17:04:25.824Z,28.94
2023-09-06T17:06:52.281Z,28.88
2023-09-06T17:09:18.740Z,28.83
2023-09-06T17:11:45.535Z,28.76
2023-09-06T17:14:12.536Z,28.43
2023-09-06T17:16:40.137Z,28.54
2023-09-06T17:19:10.047Z,28.51
2023-09-06T17:21:39.816Z,28.17
2023-09-06T17:24:08.264Z,28.22
2023-09-06T17:26:37.396Z,28.13
2023-09-06T17:29:07.313Z,28.25
2023-09-06T17:31:35.351Z,28.33
2023-09-06T17:34:02.145Z,28.01
2023-09-06T17:36:28.653Z,27.96
2023-09-06T17:38:55.505Z,28.00
2023-09-06T17:41:24.096Z,27.76
2023-09-06T17:43:51.425Z,27.84
2023-09-06T17:46:18.802Z,27.41
2023-09-06T17:48:45.546Z,27.30
2023-09-06T17:51:14.271Z,27.34
2023-09-06T17:53:41.241Z,27.31
2023-09-06T17:56:16.326Z,27.08
2023-09-06T17:58:44.320Z,26.97
2023-09-06T18:01:13.171Z,26.91
2023-09-06T18:03:41.781Z,26.88
2023-09-06T18:06:12.791Z,26.92
2023-09-06T18:08:40.302Z,26.93
2023-09-06T18:11:10.384Z,26.83
2023-09-06T18:13:41.604Z,26.86
2023-09-06T18:16:13.197Z,26.66
2023-09-06T18:18:40.321Z,26.65
2023-09-06T18:21:10.350Z,26.57
2023-09-06T18:23:38.576Z,26.13
2023-09-06T18:26:08.760Z,26.14
2023-09-06T18:28:35.463Z,26.18
2023-09-06T18:31:02.456Z,26.19
2023-09-06T18:33:29.075Z,26.00
2023-09-06T18:35:56.403Z,25.64
2023-09-06T18:38:24.150Z,25.60
2023-09-06T18:40:53.521Z,25.57
2023-09-06T18:43:22.055Z,25.47
2023-09-06T18:45:48.593Z,25.47
2023-09-06T18:48:21.598Z,25.39
2023-09-06T18:50:49.700Z,25.41
2023-09-06T18:53:16.477Z,25.21
2023-09-06T18:55:47.086Z,25.21
2023-09-06T18:58:15.469Z,25.23
2023-09-06T19:00:42.376Z,25.32
2023-09-06T19:03:13.213Z,24.96
2023-09-06T19:05:41.897Z,25.00
2023-09-06T19:08:16.494Z,25.05
2023-09-06T19:10:43.632Z,25.02
2023-09-06T19:13:11.481Z,25.12
2023-09-06T19:15:39.462Z,24.98
2023-09-06T19:18:07.346Z,25.03
2023-09-06T19:20:34.264Z,24.85
2023-09-06T19:23:00.737Z,24.87
2023-09-06T19:25:28.361Z,24.88
2023-09-06T19:27:55.121Z,24.87
2023-09-06T19:30:21.863Z,24.85
2023-09-06T19:32:48.621Z,24.68
2023-09-06T19:35:15.431Z,24.59
2023-09-06T19:37:42.085Z,24.71
2023-09-06T19:40:09.535Z,24.73
2023-09-06T19:42:36.331Z,24.64
2023-09-06T19:45:03.047Z,24.56
2023-09-06T19:47:29.745Z,24.56
2023-09-06T19:49:57.083Z,24.45
2023-09-06T19:52:24.079Z,24.38
2023-09-06T19:54:50.581Z,24.36
2023-09-06T19:57:18.281Z,24.35
2023-09-06T19:59:44.828Z,24.44
2023-09-06T20:02:11.541Z,24.28
2023-09-06T20:04:38.458Z,24.35
2023-09-06T20:07:05.508Z,24.37
2023-09-06T20:09:32.286Z,24.30
2023-09-06T20:11:58.964Z,24.19
2023-09-06T20:14:28.607Z,24.07
2023-09-06T20:16:56.180Z,24.12
2023-09-06T20:19:23.398Z,23.96
2023-09-06T20:21:50.067Z,23.97
2023-09-06T20:24:17.221Z,23.86
2023-09-06T20:26:43.815Z,23.86
2023-09-06T20:29:10.758Z,23.75
2023-09-06T20:31:37.957Z,23.66
2023-09-06T20:34:04.618Z,23.66
2023-09-06T20:36:33.106Z,23.62
2023-09-06T20:38:59.786Z,23.60
2023-09-06T20:41:26.342Z,23.55
2023-09-06T20:43:52.897Z,23.50
2023-09-06T20:46:19.420Z,23.59
2023-09-06T20:48:47.258Z,23.52
2023-09-06T20:51:17.017Z,23.57
2023-09-06T20:53:44.572Z,23.48
2023-09-06T20:56:11.905Z,23.38
2023-09-06T20:58:38.805Z,23.21
2023-09-06T21:01:16.871Z,23.15
2023-09-06T21:03:44.452Z,23.25
2023-09-06T21:06:12.187Z,23.28
2023-09-06T21:08:39.228Z,23.17
2023-09-06T21:11:06.066Z,22.99
2023-09-06T21:13:33.859Z,22.94
2023-09-06T21:16:03.434Z,23.04
2023-09-06T21:18:30.995Z,23.01
2023-09-06T21:20:58.274Z,23.01
2023-09-06T21:23:24.874Z,22.88
2023-09-06T21:25:51.652Z,22.98
2023-09-06T21:28:18.303Z,23.06
2023-09-06T21:30:48.214Z,23.10
2023-09-06T21:33:14.942Z,22.78
2023-09-06T21:35:43.035Z,22.69
2023-09-06T21:38:10.390Z,22.56
2023-09-06T21:40:44.276Z,22.64
2023-09-06T21:43:18.326Z,22.63
2023-09-06T21:45:46.285Z,22.55
2023-09-06T21:48:13.280Z,22.58
2023-09-06T21:50:41.849Z,22.46
2023-09-06T21:53:09.451Z,22.53
2023-09-06T21:55:36.090Z,22.47
2023-09-06T21:58:10.340Z,22.48
2023-09-06T22:00:39.234Z,22.42
2023-09-06T22:03:05.839Z,22.33
2023-09-06T22:05:32.366Z,22.35
2023-09-06T22:07:58.817Z,22.33
2023-09-06T22:10:25.388Z,22.28
2023-09-06T22:12:52.026Z,22.29
2023-09-06T22:15:18.735Z,22.33
2023-09-06T22:17:45.348Z,22.23
2023-09-06T22:20:11.989Z,22.27
2023-09-06T22:22:38.525Z,22.18
2023-09-06T22:25:06.921Z,22.13
2023-09-06T22:27:34.068Z,22.05
2023-09-06T22:30:00.661Z,22.00
2023-09-06T22:32:27.288Z,22.00
2023-09-06T22:34:53.974Z,21.98
2023-09-06T22:37:20.595Z,21.83
2023-09-06T22:39:47.245Z,21.86
2023-09-06T22:42:13.874Z,21.68
2023-09-06T22:44:40.552Z,21.65
2023-09-06T22:47:08.997Z,21.78
2023-09-06T22:49:38.150Z,21.86
2023-09-06T22:52:07.261Z,21.99
2023-09-06T22:54:36.785Z,21.63
2023-09-06T22:57:04.322Z,21.63
2023-09-06T22:59:31.293Z,21.61
2023-09-06T23:01:57.769Z,21.68
2023-09-06T23:04:24.478Z,21.68
2023-09-06T23:06:50.948Z,21.58
2023-09-06T23:09:20.362Z,21.57
2023-09-06T23:11:49.243Z,21.60
2023-09-06T23:14:18.504Z,21.59
2023-09-06T23:16:49.865Z,21.60
2023-09-06T23:19:28.765Z,21.65
2023-09-06T23:21:59.785Z,21.62
2023-09-06T23:24:28.774Z,21.64
2023-09-06T23:27:00.180Z,21.77
2023-09-06T23:29:29.459Z,21.75
2023-09-06T23:31:59.771Z,21.61
2023-09-06T23:34:30.673Z,21.71
2023-09-06T23:36:58.763Z,21.60
2023-09-06T23:39:28.814Z,21.63
2023-09-06T23:42:04.222Z,21.61
2023-09-06T23:44:30.645Z,21.40
2023-09-06T23:47:00.601Z,21.53
2023-09-06T23:49:27.183Z,21.55
2023-09-06T23:51:53.615Z,21.54
2023-09-06T23:54:24.808Z,21.49
2023-09-06T23:56:56.461Z,21.39
2023-09-06T23:59:22.951Z,21.27
